Time;durP1;ratioP1;P1;durP2;ratioP2;P2;SDS_P1;SDS_P2;PMS_P1;PMS_P2;Temp;Humidity;BMP_temperature;BMP_pressure;BME280_temperature;BME280_humidity;BME280_pressure;Samples;Min_cycle;Max_cycle;Signal;HPM_P1;HPM_P2
2021/10/17 00:00:12;;;;;;;0.20;0.20;;;;;;;;;;10397391;28;20052;-65
2021/10/17 00:05:16;;;;;;;0.10;0.10;;;;;;;;;;10399634;28;20053;-65
2021/10/17 00:10:22;;;;;;;0.13;0.13;;;;;;;;;;10412919;28;20068;-65
2021/10/17 00:15:26;;;;;;;0.20;0.20;;;;;;;;;;10399395;28;20056;-66
2021/10/17 00:20:29;;;;;;;0.17;0.17;;;;;;;;;;10396992;28;20072;-66
2021/10/17 00:25:33;;;;;;;0.20;0.20;;;;;;;;;;10397176;28;20033;-65
2021/10/17 00:30:36;;;;;;;0.10;0.10;;;;;;;;;;10397940;28;20060;-65
2021/10/17 00:35:39;;;;;;;0.10;0.10;;;;;;;;;;10397602;28;20045;-65
2021/10/17 00:40:44;;;;;;;0.20;0.20;;;;;;;;;;10413697;28;20068;-65
2021/10/17 00:45:46;;;;;;;0.10;0.10;;;;;;;;;;10396917;28;20052;-66
2021/10/17 00:50:49;;;;;;;0.15;0.15;;;;;;;;;;10399046;28;20137;-65
2021/10/17 00:55:54;;;;;;;0.10;0.10;;;;;;;;;;10412087;28;20129;-65
2021/10/17 01:00:57;;;;;;;0.10;0.10;;;;;;;;;;10391534;28;20052;-65
2021/10/17 01:06:00;;;;;;;0.20;0.20;;;;;;;;;;10404461;28;20148;-66
2021/10/17 01:11:04;;;;;;;0.20;0.20;;;;;;;;;;10393576;28;20164;-65
2021/10/17 01:16:07;;;;;;;0.20;0.20;;;;;;;;;;10388632;28;20048;-66
2021/10/17 01:21:22;;;;;;;0.20;0.20;;;;;;;;;;10394948;28;20131;-66
2021/10/17 01:26:26;;;;;;;0.20;0.20;;;;;;;;;;10391558;28;20052;-66
2021/10/17 01:31:33;;;;;;;0.20;0.20;;;;;;;;;;10390746;28;20136;-65
2021/10/17 01:36:38;;;;;;;0.20;0.20;;;;;;;;;;10406546;28;20057;-66
2021/10/17 01:41:41;;;;;;;0.20;0.20;;;;;;;;;;10393449;28;20053;-65
2021/10/17 01:46:44;;;;;;;0.25;0.20;;;;;;;;;;10395257;28;20065;-65
2021/10/17 01:51:48;;;;;;;0.10;0.10;;;;;;;;;;10394494;28;20849;-65
2021/10/17 01:56:51;;;;;;;0.15;0.15;;;;;;;;;;10403505;28;20044;-65
2021/10/17 02:02:02;;;;;;;0.10;0.10;;;;;;;;;;10393087;28;20127;-66
2021/10/17 02:07:07;;;;;;;0.17;0.17;;;;;;;;;;10406825;28;20050;-66
2021/10/17 02:12:11;;;;;;;0.10;0.10;;;;;;;;;;10403900;28;20053;-65
2021/10/17 02:17:17;;;;;;;0.10;0.10;;;;;;;;;;10398895;28;20090;-65
2021/10/17 02:22:23;;;;;;;0.13;0.13;;;;;;;;;;10397766;28;20060;-65
2021/10/17 02:27:25;;;;;;;0.20;0.20;;;;;;;;;;10400925;28;20041;-66
2021/10/17 02:32:29;;;;;;;0.10;0.10;;;;;;;;;;10410362;28;20503;-65
2021/10/17 02:37:45;;;;;;;0.10;0.10;;;;;;;;;;10408133;28;20064;-65
2021/10/17 02:42:49;;;;;;;0.20;0.20;;;;;;;;;;10401835;28;20103;-65
2021/10/17 02:47:53;;;;;;;0.20;0.20;;;;;;;;;;10410449;28;20049;-65
2021/10/17 02:52:58;;;;;;;0.10;0.10;;;;;;;;;;10397206;28;20072;-65
2021/10/17 02:58:02;;;;;;;0.10;0.10;;;;;;;;;;10396434;28;20045;-65
2021/10/17 03:03:05;;;;;;;0.13;0.10;;;;;;;;;;10403554;28;20551;-65
2021/10/17 03:08:17;;;;;;;0.10;0.10;;;;;;;;;;10392384;28;20100;-65
2021/10/17 03:13:20;;;;;;;0.20;0.20;;;;;;;;;;10398089;28;20704;-65
2021/10/17 03:18:23;;;;;;;0.10;0.10;;;;;;;;;;10399915;28;20046;-65
2021/10/17 03:23:27;;;;;;;0.10;0.10;;;;;;;;;;10398609;28;20107;-65
2021/10/17 03:28:30;;;;;;;0.15;0.15;;;;;;;;;;10397467;28;20046;-65
2021/10/17 03:33:32;;;;;;;0.20;0.20;;;;;;;;;;10395917;28;20148;-65
2021/10/17 03:38:41;;;;;;;0.20;0.20;;;;;;;;;;10398697;28;20054;-65
2021/10/17 03:43:47;;;;;;;0.20;0.20;;;;;;;;;;10395640;28;20045;-65
2021/10/17 03:48:50;;;;;;;0.20;0.20;;;;;;;;;;10403507;28;20049;-65
2021/10/17 03:53:57;;;;;;;0.10;0.10;;;;;;;;;;10402563;28;20135;-65
2021/10/17 03:59:00;;;;;;;0.13;0.13;;;;;;;;;;10394935;28;20669;-65
2021/10/17 04:04:04;;;;;;;0.10;0.10;;;;;;;;;;10402110;28;20041;-65
2021/10/17 04:09:09;;;;;;;0.20;0.20;;;;;;;;;;10386366;28;20131;-65
2021/10/17 04:14:12;;;;;;;0.17;0.17;;;;;;;;;;10390986;28;20115;-66
2021/10/17 04:19:15;;;;;;;0.15;0.15;;;;;;;;;;10387083;28;20041;-66
2021/10/17 04:24:19;;;;;;;0.10;0.10;;;;;;;;;;10390420;28;20038;-66
2021/10/17 04:29:23;;;;;;;0.17;0.17;;;;;;;;;;10387730;28;20099;-66
2021/10/17 04:34:27;;;;;;;0.10;0.10;;;;;;;;;;10394511;28;20045;-65
2021/10/17 04:39:33;;;;;;;0.20;0.20;;;;;;;;;;10408103;28;20458;-65
2021/10/17 04:44:40;;;;;;;0.20;0.20;;;;;;;;;;10400186;28;20044;-65
2021/10/17 04:49:43;;;;;;;0.10;0.10;;;;;;;;;;10398618;28;20689;-66
2021/10/17 04:54:47;;;;;;;0.10;0.10;;;;;;;;;;10401643;28;20135;-66
2021/10/17 04:59:50;;;;;;;0.10;0.10;;;;;;;;;;10411420;28;20538;-66
2021/10/17 05:04:53;;;;;;;0.20;0.20;;;;;;;;;;10395976;28;20119;-65
2021/10/17 05:09:57;;;;;;;0.30;0.15;;;;;;;;;;10397113;28;20639;-66
2021/10/17 05:15:00;;;;;;;0.10;0.10;;;;;;;;;;10403077;28;20095;-65
2021/10/17 05:20:03;;;;;;;0.17;0.17;;;;;;;;;;10404672;28;20053;-66
2021/10/17 05:25:11;;;;;;;0.10;0.10;;;;;;;;;;10392883;28;20045;-65
2021/10/17 05:30:14;;;;;;;0.20;0.20;;;;;;;;;;10396440;28;20049;-66
2021/10/17 05:35:17;;;;;;;0.15;0.15;;;;;;;;;;10402341;28;20577;-65
2021/10/17 05:40:22;;;;;;;0.10;0.10;;;;;;;;;;10406469;28;20053;-66
2021/10/17 05:45:25;;;;;;;0.13;0.13;;;;;;;;;;10401282;28;20587;-65
2021/10/17 05:50:28;;;;;;;0.20;0.20;;;;;;;;;;10401234;28;20038;-65
2021/10/17 05:55:33;;;;;;;0.20;0.20;;;;;;;;;;10394333;28;20141;-66
2021/10/17 06:00:36;;;;;;;0.20;0.20;;;;;;;;;;10388987;28;20057;-65
2021/10/17 06:05:39;;;;;;;0.10;0.10;;;;;;;;;;10391028;28;20048;-65
2021/10/17 06:10:44;;;;;;;0.10;0.10;;;;;;;;;;10389802;28;20847;-65
2021/10/17 06:15:47;;;;;;;0.20;0.20;;;;;;;;;;10396477;28;20395;-65
2021/10/17 06:20:50;;;;;;;0.10;0.10;;;;;;;;;;10397737;28;20440;-65
2021/10/17 06:25:54;;;;;;;0.13;0.13;;;;;;;;;;10418608;28;20041;-65
2021/10/17 06:30:58;;;;;;;0.20;0.20;;;;;;;;;;10398847;28;20107;-67
2021/10/17 06:36:01;;;;;;;0.10;0.10;;;;;;;;;;10394519;28;20085;-66
2021/10/17 06:41:05;;;;;;;0.20;0.20;;;;;;;;;;10411465;28;20152;-65
2021/10/17 06:46:08;;;;;;;0.10;0.10;;;;;;;;;;10399611;28;20702;-67
2021/10/17 06:51:13;;;;;;;0.20;0.20;;;;;;;;;;10390052;28;20059;-65
2021/10/17 06:56:18;;;;;;;0.10;0.10;;;;;;;;;;10406346;28;20523;-67
2021/10/17 07:01:21;;;;;;;0.10;0.10;;;;;;;;;;10412813;28;20053;-67
2021/10/17 07:06:30;;;;;;;0.10;0.10;;;;;;;;;;10404558;28;20597;-66
2021/10/17 07:11:45;;;;;;;0.40;0.20;;;;;;;;;;10395303;28;20867;-66
2021/10/17 07:17:00;;;;;;;0.13;0.13;;;;;;;;;;10411784;28;20068;-67
2021/10/17 07:22:06;;;;;;;0.20;0.20;;;;;;;;;;10392147;28;20056;-67
2021/10/17 07:27:15;;;;;;;0.10;0.10;;;;;;;;;;10398781;28;20045;-65
2021/10/17 07:32:18;;;;;;;0.20;0.20;;;;;;;;;;10403163;28;20053;-65
2021/10/17 07:37:22;;;;;;;0.10;0.10;;;;;;;;;;10384649;28;20041;-64
2021/10/17 07:42:26;;;;;;;0.20;0.20;;;;;;;;;;10390756;28;20069;-64
2021/10/17 07:47:32;;;;;;;0.20;0.20;;;;;;;;;;10405743;28;20142;-64
2021/10/17 07:52:42;;;;;;;0.20;0.20;;;;;;;;;;10388836;28;20041;-65
2021/10/17 07:58:01;;;;;;;0.10;0.10;;;;;;;;;;10385144;28;20069;-64
2021/10/17 08:03:12;;;;;;;0.10;0.10;;;;;;;;;;10404359;28;20675;-64
2021/10/17 08:08:17;;;;;;;0.15;0.15;;;;;;;;;;10385967;28;20054;-65
2021/10/17 08:13:21;;;;;;;0.20;0.20;;;;;;;;;;10387442;28;20049;-65
2021/10/17 08:18:29;;;;;;;0.10;0.10;;;;;;;;;;10401718;28;20084;-64
2021/10/17 08:23:37;;;;;;;0.10;0.10;;;;;;;;;;10388409;28;20041;-65
2021/10/17 08:28:42;;;;;;;0.10;0.10;;;;;;;;;;10390064;28;20133;-65
2021/10/17 08:33:55;;;;;;;0.10;0.10;;;;;;;;;;10400304;28;20065;-65
2021/10/17 08:39:06;;;;;;;0.10;0.10;;;;;;;;;;10404129;28;20131;-65
2021/10/17 08:44:19;;;;;;;0.20;0.20;;;;;;;;;;10386535;28;20045;-65
2021/10/17 08:49:33;;;;;;;0.10;0.10;;;;;;;;;;10390461;28;20468;-65
2021/10/17 08:54:36;;;;;;;0.10;0.10;;;;;;;;;;10388886;28;20491;-67
2021/10/17 08:59:46;;;;;;;0.10;0.10;;;;;;;;;;10389623;28;20052;-67
2021/10/17 09:04:59;;;;;;;0.13;0.13;;;;;;;;;;10405364;28;20115;-67
2021/10/17 09:10:09;;;;;;;0.10;0.10;;;;;;;;;;10402562;28;20045;-67
2021/10/17 09:15:26;;;;;;;0.10;0.10;;;;;;;;;;10395084;28;20113;-67
2021/10/17 09:20:31;;;;;;;0.10;0.10;;;;;;;;;;10400953;28;20727;-65
2021/10/17 09:25:34;;;;;;;0.10;0.10;;;;;;;;;;10405749;28;20041;-64
2021/10/17 09:30:39;;;;;;;0.10;0.10;;;;;;;;;;10398868;28;20034;-64
2021/10/17 09:35:42;;;;;;;0.10;0.10;;;;;;;;;;10403454;28;20072;-65
2021/10/17 09:41:20;;;;;;;0.10;0.10;;;;;;;;;;10397295;28;20057;-64
2021/10/17 09:46:34;;;;;;;0.10;0.10;;;;;;;;;;10401586;28;20479;-67
2021/10/17 09:51:37;;;;;;;0.10;0.10;;;;;;;;;;10399500;28;20037;-70
2021/10/17 09:56:40;;;;;;;0.10;0.10;;;;;;;;;;10402231;28;20049;-68
2021/10/17 10:01:44;;;;;;;0.10;0.10;;;;;;;;;;10400328;28;20052;-69
2021/10/17 10:06:47;;;;;;;0.10;0.10;;;;;;;;;;10401819;28;20049;-67
2021/10/17 10:11:50;;;;;;;0.20;0.20;;;;;;;;;;10403238;28;20047;-66
2021/10/17 10:16:56;;;;;;;0.10;0.10;;;;;;;;;;10402240;28;20041;-66
2021/10/17 10:21:59;;;;;;;0.00;0.00;;;;;;;;;;10400112;28;20050;-66
2021/10/17 10:27:04;;;;;;;0.10;0.10;;;;;;;;;;10400850;28;20048;-66
2021/10/17 10:32:08;;;;;;;0.10;0.10;;;;;;;;;;10395672;28;20045;-66
2021/10/17 10:37:14;;;;;;;0.10;0.10;;;;;;;;;;10394582;28;20101;-71
2021/10/17 10:42:33;;;;;;;0.10;0.10;;;;;;;;;;10393650;28;20061;-69
2021/10/17 10:47:37;;;;;;;0.10;0.10;;;;;;;;;;10391890;28;20481;-64
2021/10/17 10:52:43;;;;;;;0.00;0.00;;;;;;;;;;10393458;28;20056;-69
2021/10/17 10:57:47;;;;;;;0.10;0.10;;;;;;;;;;10395963;28;20108;-66
2021/10/17 11:03:08;;;;;;;0.43;0.20;;;;;;;;;;10391290;28;20555;-66
2021/10/17 11:08:13;;;;;;;0.10;0.10;;;;;;;;;;10416705;28;20048;-68
2021/10/17 11:13:32;;;;;;;0.00;0.00;;;;;;;;;;10397147;28;20144;-66
2021/10/17 11:18:38;;;;;;;0.10;0.10;;;;;;;;;;10400190;28;20049;-69
2021/10/17 11:23:42;;;;;;;0.10;0.05;;;;;;;;;;10399195;28;20781;-66
2021/10/17 11:28:48;;;;;;;0.10;0.10;;;;;;;;;;10401365;28;20041;-67
2021/10/17 11:33:52;;;;;;;0.10;0.10;;;;;;;;;;10397548;28;20128;-67
2021/10/17 11:38:58;;;;;;;0.10;0.10;;;;;;;;;;10398073;28;20172;-66
2021/10/17 11:44:01;;;;;;;0.10;0.10;;;;;;;;;;10400766;28;20799;-66
2021/10/17 11:49:09;;;;;;;0.10;0.10;;;;;;;;;;10399247;28;20427;-67
2021/10/17 11:54:15;;;;;;;0.10;0.10;;;;;;;;;;10399225;28;20041;-70
2021/10/17 11:59:22;;;;;;;0.00;0.00;;;;;;;;;;10397113;28;20053;-67
2021/10/17 12:04:40;;;;;;;0.00;0.00;;;;;;;;;;10397359;28;20054;-67
2021/10/17 12:09:45;;;;;;;0.05;0.05;;;;;;;;;;10390941;28;20412;-68
2021/10/17 12:15:00;;;;;;;0.10;0.10;;;;;;;;;;10394145;28;20051;-68
2021/10/17 12:20:04;;;;;;;0.00;0.00;;;;;;;;;;10386738;28;20053;-68
2021/10/17 12:25:10;;;;;;;0.00;0.00;;;;;;;;;;10394799;28;20116;-68
2021/10/17 12:30:16;;;;;;;0.10;0.10;;;;;;;;;;10383242;28;20049;-68
2021/10/17 12:35:30;;;;;;;0.10;0.10;;;;;;;;;;10394393;28;20826;-68
2021/10/17 12:40:35;;;;;;;0.00;0.00;;;;;;;;;;10390117;28;20038;-68
2021/10/17 12:45:39;;;;;;;0.00;0.00;;;;;;;;;;10381262;28;20045;-68
2021/10/17 12:50:43;;;;;;;0.00;0.00;;;;;;;;;;10382916;28;20117;-68
2021/10/17 12:55:55;;;;;;;0.05;0.00;;;;;;;;;;10385128;28;20049;-68
2021/10/17 13:01:03;;;;;;;0.10;0.10;;;;;;;;;;10384515;28;20132;-68
2021/10/17 13:06:06;;;;;;;0.10;0.10;;;;;;;;;;10389835;28;20909;-68
2021/10/17 13:11:12;;;;;;;0.00;0.00;;;;;;;;;;10390727;28;20377;-68
2021/10/17 13:16:28;;;;;;;0.10;0.10;;;;;;;;;;10387891;28;20140;-68
2021/10/17 13:21:32;;;;;;;0.00;0.00;;;;;;;;;;10390293;28;20057;-67
2021/10/17 13:26:39;;;;;;;0.00;0.00;;;;;;;;;;10397402;28;20033;-66
2021/10/17 13:31:42;;;;;;;0.00;0.00;;;;;;;;;;10408386;28;20049;-66
2021/10/17 13:36:47;;;;;;;0.10;0.10;;;;;;;;;;10388063;28;20041;-63
2021/10/17 13:41:51;;;;;;;0.00;0.00;;;;;;;;;;10382830;28;20072;-61
2021/10/17 13:46:54;;;;;;;0.08;0.08;;;;;;;;;;10383446;28;20057;-62
2021/10/17 13:51:57;;;;;;;0.00;0.00;;;;;;;;;;10386224;28;20049;-62
2021/10/17 13:57:01;;;;;;;0.00;0.00;;;;;;;;;;10387334;28;20041;-62
2021/10/17 14:02:04;;;;;;;0.00;0.00;;;;;;;;;;10394115;28;20546;-63
2021/10/17 14:07:07;;;;;;;0.00;0.00;;;;;;;;;;10395207;28;20902;-62
2021/10/17 14:12:12;;;;;;;0.05;0.05;;;;;;;;;;10398376;28;20045;-62
2021/10/17 14:17:14;;;;;;;0.00;0.00;;;;;;;;;;10395474;28;20488;-62
2021/10/17 14:22:17;;;;;;;0.10;0.10;;;;;;;;;;10389643;28;20484;-62
2021/10/17 14:27:23;;;;;;;0.10;0.10;;;;;;;;;;10394480;28;20048;-62
2021/10/17 14:32:26;;;;;;;0.00;0.00;;;;;;;;;;10395504;28;20052;-63
2021/10/17 14:37:29;;;;;;;0.00;0.00;;;;;;;;;;10395827;28;20079;-63
2021/10/17 14:42:33;;;;;;;0.00;0.00;;;;;;;;;;10398432;28;20069;-63
2021/10/17 14:47:36;;;;;;;0.10;0.10;;;;;;;;;;10394701;28;20062;-63
2021/10/17 14:52:41;;;;;;;0.00;0.00;;;;;;;;;;10398522;28;20053;-67
2021/10/17 14:57:47;;;;;;;0.00;0.00;;;;;;;;;;10398849;28;20033;-67
2021/10/17 15:02:50;;;;;;;0.10;0.10;;;;;;;;;;10397799;28;20047;-67
2021/10/17 15:07:53;;;;;;;0.10;0.10;;;;;;;;;;10401954;28;20033;-66
2021/10/17 15:12:57;;;;;;;0.10;0.10;;;;;;;;;;10396405;28;20033;-66
2021/10/17 15:18:00;;;;;;;0.10;0.10;;;;;;;;;;10396740;28;20401;-66
2021/10/17 15:23:03;;;;;;;0.00;0.00;;;;;;;;;;10398232;28;20067;-66
2021/10/17 15:28:07;;;;;;;0.08;0.08;;;;;;;;;;10402642;28;20065;-66
2021/10/17 15:33:10;;;;;;;0.10;0.10;;;;;;;;;;10396206;28;20173;-66
2021/10/17 15:38:13;;;;;;;0.10;0.10;;;;;;;;;;10401855;28;20116;-67
2021/10/17 15:43:17;;;;;;;0.00;0.00;;;;;;;;;;10403454;28;20123;-66
2021/10/17 15:48:20;;;;;;;0.00;0.00;;;;;;;;;;10402757;28;20136;-66
2021/10/17 15:53:26;;;;;;;0.10;0.10;;;;;;;;;;10403114;28;20099;-66
2021/10/17 15:58:31;;;;;;;0.00;0.00;;;;;;;;;;10408847;28;20076;-66
2021/10/17 16:03:34;;;;;;;0.00;0.00;;;;;;;;;;10397756;28;20045;-67
2021/10/17 16:08:36;;;;;;;0.10;0.10;;;;;;;;;;10398178;28;20095;-66
2021/10/17 16:13:41;;;;;;;0.20;0.10;;;;;;;;;;10397515;28;20042;-66
2021/10/17 16:18:43;;;;;;;0.00;0.00;;;;;;;;;;10401327;28;20041;-65
2021/10/17 16:23:47;;;;;;;0.00;0.00;;;;;;;;;;10398963;28;20049;-65
2021/10/17 16:28:52;;;;;;;0.10;0.10;;;;;;;;;;10381725;28;20044;-64
2021/10/17 16:33:56;;;;;;;0.00;0.00;;;;;;;;;;10400011;28;20041;-66
2021/10/17 16:38:59;;;;;;;0.10;0.10;;;;;;;;;;10409233;28;20053;-65
2021/10/17 16:44:08;;;;;;;0.10;0.10;;;;;;;;;;10402559;28;20431;-65
2021/10/17 16:49:14;;;;;;;0.10;0.10;;;;;;;;;;10400610;28;20057;-66
2021/10/17 16:54:17;;;;;;;0.10;0.10;;;;;;;;;;10400522;28;20068;-66
2021/10/17 16:59:21;;;;;;;0.10;0.10;;;;;;;;;;10391840;28;20105;-75
2021/10/17 17:04:24;;;;;;;0.10;0.10;;;;;;;;;;10398310;28;20550;-67
2021/10/17 17:09:26;;;;;;;0.10;0.05;;;;;;;;;;10395412;28;20057;-66
2021/10/17 17:14:31;;;;;;;0.10;0.10;;;;;;;;;;10045642;28;10001278;-67
2021/10/17 17:19:34;;;;;;;0.10;0.10;;;;;;;;;;10400245;28;20204;-67
2021/10/17 17:24:43;;;;;;;0.10;0.10;;;;;;;;;;10400012;28;20042;-67
2021/10/17 17:29:48;;;;;;;0.10;0.10;;;;;;;;;;10396998;28;20472;-68
2021/10/17 17:34:57;;;;;;;0.10;0.10;;;;;;;;;;10394704;28;20069;-66
2021/10/17 17:40:02;;;;;;;0.05;0.05;;;;;;;;;;10403584;28;20030;-67
2021/10/17 17:45:06;;;;;;;0.10;0.10;;;;;;;;;;10403651;28;20049;-67
2021/10/17 17:50:11;;;;;;;0.10;0.10;;;;;;;;;;10405449;28;20049;-66
2021/10/17 17:55:14;;;;;;;0.10;0.10;;;;;;;;;;10407371;28;20057;-66
2021/10/17 18:00:19;;;;;;;0.10;0.10;;;;;;;;;;10406080;28;20044;-67
2021/10/17 18:05:23;;;;;;;0.22;0.10;;;;;;;;;;10405292;28;20053;-67
2021/10/17 18:10:26;;;;;;;0.10;0.10;;;;;;;;;;10404814;28;20077;-67
2021/10/17 18:15:30;;;;;;;0.10;0.10;;;;;;;;;;10404265;28;20045;-66
2021/10/17 18:20:33;;;;;;;0.10;0.10;;;;;;;;;;10406241;28;20049;-67
2021/10/17 18:25:36;;;;;;;0.10;0.10;;;;;;;;;;10406255;28;20053;-66
2021/10/17 18:30:42;;;;;;;0.10;0.10;;;;;;;;;;10406032;28;20129;-66
2021/10/17 18:35:45;;;;;;;0.10;0.10;;;;;;;;;;10379164;28;20045;-67
2021/10/17 18:40:48;;;;;;;0.10;0.10;;;;;;;;;;10401921;28;20533;-66
2021/10/17 18:45:52;;;;;;;0.10;0.10;;;;;;;;;;10408750;28;20563;-67
2021/10/17 18:50:56;;;;;;;0.10;0.10;;;;;;;;;;10398124;28;20048;-66
2021/10/17 18:56:20;;;;;;;0.10;0.10;;;;;;;;;;10405323;28;20041;-66
2021/10/17 19:01:25;;;;;;;0.10;0.10;;;;;;;;;;10402063;28;20042;-67
2021/10/17 19:06:30;;;;;;;0.10;0.10;;;;;;;;;;10413886;28;20049;-67
2021/10/17 19:11:35;;;;;;;0.10;0.10;;;;;;;;;;10398818;28;20041;-67
2021/10/17 19:16:43;;;;;;;0.10;0.10;;;;;;;;;;10405624;28;20160;-67
2021/10/17 19:21:48;;;;;;;0.10;0.10;;;;;;;;;;10399104;28;20059;-67
2021/10/17 19:26:51;;;;;;;0.10;0.10;;;;;;;;;;10400370;28;20131;-67
2021/10/17 19:32:22;;;;;;;0.32;0.20;;;;;;;;;;10391230;28;20089;-67
2021/10/17 19:37:28;;;;;;;0.10;0.10;;;;;;;;;;10393582;28;20053;-68
2021/10/17 19:42:30;;;;;;;0.10;0.10;;;;;;;;;;10393024;28;20112;-67
2021/10/17 19:47:38;;;;;;;0.10;0.10;;;;;;;;;;10396055;28;20492;-67
2021/10/17 19:52:43;;;;;;;0.10;0.10;;;;;;;;;;10396985;28;20038;-67
2021/10/17 19:57:48;;;;;;;0.10;0.10;;;;;;;;;;10397445;28;20555;-67
2021/10/17 20:02:54;;;;;;;0.10;0.10;;;;;;;;;;10396078;28;20034;-66
2021/10/17 20:08:01;;;;;;;0.10;0.10;;;;;;;;;;10396555;28;20049;-67
2021/10/17 20:13:07;;;;;;;0.10;0.10;;;;;;;;;;10396650;28;20043;-67
2021/10/17 20:18:34;;;;;;;0.10;0.10;;;;;;;;;;10412155;28;20498;-67
2021/10/17 20:23:39;;;;;;;0.10;0.10;;;;;;;;;;10399260;28;20480;-67
2021/10/17 20:28:49;;;;;;;0.10;0.10;;;;;;;;;;10401138;28;20775;-67
2021/10/17 20:33:52;;;;;;;0.10;0.10;;;;;;;;;;10397630;28;20494;-67
2021/10/17 20:44:53;;;;;;;0.10;0.10;;;;;;;;;;10275396;28;20063;-68
2021/10/17 20:49:58;;;;;;;0.10;0.10;;;;;;;;;;10274637;28;20088;-67
2021/10/17 20:55:03;;;;;;;0.10;0.10;;;;;;;;;;10277160;28;20492;-68
2021/10/17 21:00:07;;;;;;;0.10;0.10;;;;;;;;;;10382862;28;20057;-68
2021/10/17 21:05:10;;;;;;;0.00;0.00;;;;;;;;;;10404605;28;20483;-68
2021/10/17 21:10:14;;;;;;;0.10;0.10;;;;;;;;;;10408100;28;20041;-67
2021/10/17 21:15:17;;;;;;;0.10;0.10;;;;;;;;;;10406067;28;20136;-67
2021/10/17 21:20:20;;;;;;;0.10;0.10;;;;;;;;;;10400684;28;20042;-67
2021/10/17 21:25:24;;;;;;;0.10;0.10;;;;;;;;;;10400613;28;20045;-67
2021/10/17 21:30:27;;;;;;;0.10;0.10;;;;;;;;;;10404105;28;20043;-67
2021/10/17 21:35:30;;;;;;;0.10;0.10;;;;;;;;;;10402914;28;20092;-67
2021/10/17 21:40:34;;;;;;;0.10;0.10;;;;;;;;;;10402289;28;20051;-67
2021/10/17 21:45:42;;;;;;;0.10;0.10;;;;;;;;;;10404054;28;20046;-67
2021/10/17 21:50:45;;;;;;;0.10;0.10;;;;;;;;;;10397370;28;20103;-67
2021/10/17 21:55:50;;;;;;;0.10;0.10;;;;;;;;;;10403050;28;20073;-67
2021/10/17 22:00:53;;;;;;;0.15;0.10;;;;;;;;;;10401703;28;20080;-67
2021/10/17 22:05:57;;;;;;;0.10;0.10;;;;;;;;;;10409919;28;20057;-67
2021/10/17 22:11:01;;;;;;;0.10;0.10;;;;;;;;;;10402353;28;20537;-67
2021/10/17 22:16:04;;;;;;;0.10;0.10;;;;;;;;;;10404657;28;20056;-68
2021/10/17 22:21:33;;;;;;;0.10;0.10;;;;;;;;;;10401771;28;20049;-67
2021/10/17 22:26:37;;;;;;;0.10;0.10;;;;;;;;;;10398219;28;20053;-67
2021/10/17 22:31:39;;;;;;;0.10;0.10;;;;;;;;;;10394964;28;20050;-67
2021/10/17 22:36:44;;;;;;;0.10;0.10;;;;;;;;;;10410671;28;20395;-67
2021/10/17 22:42:05;;;;;;;0.10;0.10;;;;;;;;;;10418920;28;20073;-67
2021/10/17 22:47:09;;;;;;;0.10;0.10;;;;;;;;;;10410715;28;20484;-67
2021/10/17 22:52:12;;;;;;;0.10;0.10;;;;;;;;;;10408179;28;20930;-67
2021/10/17 22:57:16;;;;;;;0.10;0.10;;;;;;;;;;10405765;28;20041;-66
2021/10/17 23:02:19;;;;;;;0.10;0.10;;;;;;;;;;10405095;28;20072;-66
2021/10/17 23:07:22;;;;;;;0.10;0.10;;;;;;;;;;10407399;28;20037;-67
2021/10/17 23:12:26;;;;;;;0.10;0.10;;;;;;;;;;10407540;28;20044;-68
2021/10/17 23:17:33;;;;;;;0.10;0.10;;;;;;;;;;10401989;28;20753;-68
2021/10/17 23:22:36;;;;;;;0.10;0.10;;;;;;;;;;10410848;28;20057;-68
2021/10/17 23:27:40;;;;;;;0.10;0.10;;;;;;;;;;10402600;28;20072;-68
2021/10/17 23:32:46;;;;;;;0.10;0.10;;;;;;;;;;10410555;28;20051;-68
2021/10/17 23:37:49;;;;;;;0.10;0.10;;;;;;;;;;10405212;28;20064;-68
2021/10/17 23:42:53;;;;;;;0.10;0.10;;;;;;;;;;10407854;28;20053;-68
2021/10/17 23:47:56;;;;;;;0.10;0.10;;;;;;;;;;10407930;28;20050;-68
2021/10/17 23:53:07;;;;;;;0.13;0.13;;;;;;;;;;10408179;28;20049;-68
2021/10/17 23:58:11;;;;;;;0.10;0.10;;;;;;;;;;10404325;28;20107;-68
